sensor_id;sensor_type;location;lat;lon;timestamp;temperature;humidity
9466;DHT22;4771;48.726;9.006;2022-09-09T00:02:16;14.20;99.90
9466;DHT22;4771;48.726;9.006;2022-09-09T00:04:48;14.20;99.90
9466;DHT22;4771;48.726;9.006;2022-09-09T00:07:24;14.20;99.90
9466;DHT22;4771;48.726;9.006;2022-09-09T00:10:07;14.20;99.90
9466;DHT22;4771;48.726;9.006;2022-09-09T00:12:47;14.20;99.90
9466;DHT22;4771;48.726;9.006;2022-09-09T00:15:19;14.40;99.90
9466;DHT22;4771;48.726;9.006;2022-09-09T00:17:51;14.40;99.90
9466;DHT22;4771;48.726;9.006;2022-09-09T00:20:28;14.40;99.90
9466;DHT22;4771;48.726;9.006;2022-09-09T00:23:00;14.50;99.90
9466;DHT22;4771;48.726;9.006;2022-09-09T00:25:37;14.60;99.90
9466;DHT22;4771;48.726;9.006;2022-09-09T00:28:19;14.60;99.90
9466;DHT22;4771;48.726;9.006;2022-09-09T00:30:46;14.70;99.90
9466;DHT22;4771;48.726;9.006;2022-09-09T00:33:17;14.70;99.90
9466;DHT22;4771;48.726;9.006;2022-09-09T00:35:50;14.80;99.90
9466;DHT22;4771;48.726;9.006;2022-09-09T00:38:22;14.80;99.90
9466;DHT22;4771;48.726;9.006;2022-09-09T00:40:52;14.80;99.90
9466;DHT22;4771;48.726;9.006;2022-09-09T00:43:26;14.80;99.90
9466;DHT22;4771;48.726;9.006;2022-09-09T00:49:03;14.90;99.90
9466;DHT22;4771;48.726;9.006;2022-09-09T00:51:42;14.90;99.90
9466;DHT22;4771;48.726;9.006;2022-09-09T00:54:26;14.90;99.90
9466;DHT22;4771;48.726;9.006;2022-09-09T00:57:04;15.00;99.90
9466;DHT22;4771;48.726;9.006;2022-09-09T00:59:44;15.00;99.90
9466;DHT22;4771;48.726;9.006;2022-09-09T01:02:18;15.00;99.90
9466;DHT22;4771;48.726;9.006;2022-09-09T01:04:47;15.10;99.90
9466;DHT22;4771;48.726;9.006;2022-09-09T01:07:17;15.00;99.90
9466;DHT22;4771;48.726;9.006;2022-09-09T01:09:56;15.00;99.90
9466;DHT22;4771;48.726;9.006;2022-09-09T01:12:26;14.90;99.90
9466;DHT22;4771;48.726;9.006;2022-09-09T01:15:00;14.90;99.90
9466;DHT22;4771;48.726;9.006;2022-09-09T01:17:31;14.80;99.90
9466;DHT22;4771;48.726;9.006;2022-09-09T01:20:06;14.80;99.90
9466;DHT22;4771;48.726;9.006;2022-09-09T01:22:47;14.80;99.90
9466;DHT22;4771;48.726;9.006;2022-09-09T01:25:29;14.80;99.90
9466;DHT22;4771;48.726;9.006;2022-09-09T01:28:00;14.80;99.90
9466;DHT22;4771;48.726;9.006;2022-09-09T01:30:38;14.80;99.90
9466;DHT22;4771;48.726;9.006;2022-09-09T01:33:07;14.80;99.90
9466;DHT22;4771;48.726;9.006;2022-09-09T01:35:42;14.80;99.90
9466;DHT22;4771;48.726;9.006;2022-09-09T01:38:12;14.70;99.90
9466;DHT22;4771;48.726;9.006;2022-09-09T01:40:39;14.70;99.90
9466;DHT22;4771;48.726;9.006;2022-09-09T01:43:08;14.70;99.90
9466;DHT22;4771;48.726;9.006;2022-09-09T01:45:35;14.70;99.90
9466;DHT22;4771;48.726;9.006;2022-09-09T01:48:03;14.70;99.90
9466;DHT22;4771;48.726;9.006;2022-09-09T01:50:30;14.70;99.90
9466;DHT22;4771;48.726;9.006;2022-09-09T01:52:58;14.70;99.90
9466;DHT22;4771;48.726;9.006;2022-09-09T01:55:30;14.60;99.90
9466;DHT22;4771;48.726;9.006;2022-09-09T01:58:11;14.60;99.90
9466;DHT22;4771;48.726;9.006;2022-09-09T02:00:47;14.60;99.90
9466;DHT22;4771;48.726;9.006;2022-09-09T02:03:20;14.50;99.90
9466;DHT22;4771;48.726;9.006;2022-09-09T02:05:55;14.50;99.90
9466;DHT22;4771;48.726;9.006;2022-09-09T02:08:29;14.40;99.90
9466;DHT22;4771;48.726;9.006;2022-09-09T02:11:01;14.40;99.90
9466;DHT22;4771;48.726;9.006;2022-09-09T02:13:35;14.40;99.90
9466;DHT22;4771;48.726;9.006;2022-09-09T02:16:07;14.30;99.90
9466;DHT22;4771;48.726;9.006;2022-09-09T02:18:38;14.20;99.90
9466;DHT22;4771;48.726;9.006;2022-09-09T02:21:08;14.20;99.90
9466;DHT22;4771;48.726;9.006;2022-09-09T02:23:38;14.20;99.90
9466;DHT22;4771;48.726;9.006;2022-09-09T02:26:07;14.10;99.90
9466;DHT22;4771;48.726;9.006;2022-09-09T02:28:36;14.20;99.90
9466;DHT22;4771;48.726;9.006;2022-09-09T02:31:05;14.10;99.90
9466;DHT22;4771;48.726;9.006;2022-09-09T02:33:35;14.00;99.90
9466;DHT22;4771;48.726;9.006;2022-09-09T02:36:05;13.90;99.90
9466;DHT22;4771;48.726;9.006;2022-09-09T02:38:38;13.90;99.90
9466;DHT22;4771;48.726;9.006;2022-09-09T02:41:06;13.90;99.90
9466;DHT22;4771;48.726;9.006;2022-09-09T02:43:34;13.90;99.90
9466;DHT22;4771;48.726;9.006;2022-09-09T02:46:09;13.80;99.90
9466;DHT22;4771;48.726;9.006;2022-09-09T02:48:45;13.80;99.90
9466;DHT22;4771;48.726;9.006;2022-09-09T02:51:18;13.80;99.90
9466;DHT22;4771;48.726;9.006;2022-09-09T02:53:55;13.80;99.90
9466;DHT22;4771;48.726;9.006;2022-09-09T02:56:27;13.70;99.90
9466;DHT22;4771;48.726;9.006;2022-09-09T02:58:56;13.70;99.90
9466;DHT22;4771;48.726;9.006;2022-09-09T03:01:25;13.70;99.90
9466;DHT22;4771;48.726;9.006;2022-09-09T03:03:52;13.60;99.90
9466;DHT22;4771;48.726;9.006;2022-09-09T03:06:20;13.60;99.90
9466;DHT22;4771;48.726;9.006;2022-09-09T03:08:47;13.50;99.90
9466;DHT22;4771;48.726;9.006;2022-09-09T03:11:15;13.50;99.90
9466;DHT22;4771;48.726;9.006;2022-09-09T03:13:42;13.40;99.90
9466;DHT22;4771;48.726;9.006;2022-09-09T03:16:09;13.30;99.90
9466;DHT22;4771;48.726;9.006;2022-09-09T03:18:37;13.30;99.90
9466;DHT22;4771;48.726;9.006;2022-09-09T03:21:04;13.30;99.90
9466;DHT22;4771;48.726;9.006;2022-09-09T03:23:32;13.30;99.90
9466;DHT22;4771;48.726;9.006;2022-09-09T03:25:59;13.30;99.90
9466;DHT22;4771;48.726;9.006;2022-09-09T03:28:28;13.30;99.90
9466;DHT22;4771;48.726;9.006;2022-09-09T03:30:59;13.30;99.90
9466;DHT22;4771;48.726;9.006;2022-09-09T03:33:26;13.30;99.90
9466;DHT22;4771;48.726;9.006;2022-09-09T03:35:55;13.20;99.90
9466;DHT22;4771;48.726;9.006;2022-09-09T03:38:23;13.30;99.90
9466;DHT22;4771;48.726;9.006;2022-09-09T03:40:51;13.20;99.90
9466;DHT22;4771;48.726;9.006;2022-09-09T03:43:20;13.20;99.90
9466;DHT22;4771;48.726;9.006;2022-09-09T03:45:47;13.20;99.90
9466;DHT22;4771;48.726;9.006;2022-09-09T03:48:15;13.20;99.90
9466;DHT22;4771;48.726;9.006;2022-09-09T03:50:44;13.30;99.90
9466;DHT22;4771;48.726;9.006;2022-09-09T03:53:14;13.30;99.90
9466;DHT22;4771;48.726;9.006;2022-09-09T03:55:44;13.20;99.90
9466;DHT22;4771;48.726;9.006;2022-09-09T03:58:11;13.20;99.90
9466;DHT22;4771;48.726;9.006;2022-09-09T04:00:38;13.30;99.90
9466;DHT22;4771;48.726;9.006;2022-09-09T04:03:07;13.30;99.90
9466;DHT22;4771;48.726;9.006;2022-09-09T04:05:34;13.30;99.90
9466;DHT22;4771;48.726;9.006;2022-09-09T04:08:05;13.30;99.90
9466;DHT22;4771;48.726;9.006;2022-09-09T04:10:33;13.30;99.90
9466;DHT22;4771;48.726;9.006;2022-09-09T04:13:01;13.30;99.90
9466;DHT22;4771;48.726;9.006;2022-09-09T04:15:28;13.30;99.90
9466;DHT22;4771;48.726;9.006;2022-09-09T04:17:55;13.30;99.90
9466;DHT22;4771;48.726;9.006;2022-09-09T04:20:22;13.30;99.90
9466;DHT22;4771;48.726;9.006;2022-09-09T04:22:49;13.30;99.90
9466;DHT22;4771;48.726;9.006;2022-09-09T04:25:16;13.40;99.90
9466;DHT22;4771;48.726;9.006;2022-09-09T04:27:44;13.60;99.90
9466;DHT22;4771;48.726;9.006;2022-09-09T04:30:12;13.60;99.90
9466;DHT22;4771;48.726;9.006;2022-09-09T04:32:39;13.70;99.90
9466;DHT22;4771;48.726;9.006;2022-09-09T04:35:06;13.70;99.90
9466;DHT22;4771;48.726;9.006;2022-09-09T04:37:33;13.70;99.90
9466;DHT22;4771;48.726;9.006;2022-09-09T04:40:01;13.80;99.90
9466;DHT22;4771;48.726;9.006;2022-09-09T04:42:28;13.80;99.90
9466;DHT22;4771;48.726;9.006;2022-09-09T04:44:56;13.90;99.90
9466;DHT22;4771;48.726;9.006;2022-09-09T04:47:23;14.00;99.90
9466;DHT22;4771;48.726;9.006;2022-09-09T04:49:50;14.00;99.90
9466;DHT22;4771;48.726;9.006;2022-09-09T04:52:17;14.00;99.90
9466;DHT22;4771;48.726;9.006;2022-09-09T04:54:44;14.10;99.90
9466;DHT22;4771;48.726;9.006;2022-09-09T04:57:11;14.10;99.90
9466;DHT22;4771;48.726;9.006;2022-09-09T04:59:38;14.20;99.90
9466;DHT22;4771;48.726;9.006;2022-09-09T05:02:07;14.20;99.90
9466;DHT22;4771;48.726;9.006;2022-09-09T05:04:34;14.20;99.90
9466;DHT22;4771;48.726;9.006;2022-09-09T05:07:00;14.20;99.90
9466;DHT22;4771;48.726;9.006;2022-09-09T05:09:27;14.20;99.90
9466;DHT22;4771;48.726;9.006;2022-09-09T05:11:54;14.20;99.90
9466;DHT22;4771;48.726;9.006;2022-09-09T05:14:21;14.20;99.90
9466;DHT22;4771;48.726;9.006;2022-09-09T05:16:49;14.20;99.90
9466;DHT22;4771;48.726;9.006;2022-09-09T05:19:18;14.40;99.90
9466;DHT22;4771;48.726;9.006;2022-09-09T05:21:45;14.40;99.90
9466;DHT22;4771;48.726;9.006;2022-09-09T05:24:12;14.60;99.90
9466;DHT22;4771;48.726;9.006;2022-09-09T05:26:40;14.60;99.90
9466;DHT22;4771;48.726;9.006;2022-09-09T05:29:07;14.70;99.90
9466;DHT22;4771;48.726;9.006;2022-09-09T05:31:33;14.80;99.90
9466;DHT22;4771;48.726;9.006;2022-09-09T05:34:00;14.80;99.90
9466;DHT22;4771;48.726;9.006;2022-09-09T05:36:29;14.80;99.90
9466;DHT22;4771;48.726;9.006;2022-09-09T05:38:56;14.90;99.90
9466;DHT22;4771;48.726;9.006;2022-09-09T05:41:22;14.90;99.90
9466;DHT22;4771;48.726;9.006;2022-09-09T05:43:49;15.10;99.90
9466;DHT22;4771;48.726;9.006;2022-09-09T05:46:18;15.10;99.90
9466;DHT22;4771;48.726;9.006;2022-09-09T05:48:46;15.20;99.90
9466;DHT22;4771;48.726;9.006;2022-09-09T05:51:15;15.30;99.90
9466;DHT22;4771;48.726;9.006;2022-09-09T05:53:45;15.50;99.90
9466;DHT22;4771;48.726;9.006;2022-09-09T05:56:13;15.40;99.90
9466;DHT22;4771;48.726;9.006;2022-09-09T05:58:41;15.40;99.90
9466;DHT22;4771;48.726;9.006;2022-09-09T06:01:10;15.40;99.90
9466;DHT22;4771;48.726;9.006;2022-09-09T06:03:39;15.40;99.90
9466;DHT22;4771;48.726;9.006;2022-09-09T06:06:08;15.50;99.90
9466;DHT22;4771;48.726;9.006;2022-09-09T06:08:36;15.40;99.90
9466;DHT22;4771;48.726;9.006;2022-09-09T06:11:08;15.40;99.90
9466;DHT22;4771;48.726;9.006;2022-09-09T06:13:36;15.40;99.90
9466;DHT22;4771;48.726;9.006;2022-09-09T06:16:05;15.40;99.90
9466;DHT22;4771;48.726;9.006;2022-09-09T06:18:32;15.50;99.90
9466;DHT22;4771;48.726;9.006;2022-09-09T06:21:01;15.60;99.90
9466;DHT22;4771;48.726;9.006;2022-09-09T06:23:30;15.60;99.90
9466;DHT22;4771;48.726;9.006;2022-09-09T06:26:03;15.60;99.90
9466;DHT22;4771;48.726;9.006;2022-09-09T06:28:32;15.60;99.90
9466;DHT22;4771;48.726;9.006;2022-09-09T06:30:59;15.70;99.90
9466;DHT22;4771;48.726;9.006;2022-09-09T06:33:30;15.70;99.90
9466;DHT22;4771;48.726;9.006;2022-09-09T06:35:57;15.80;99.90
9466;DHT22;4771;48.726;9.006;2022-09-09T06:38:24;15.90;99.90
9466;DHT22;4771;48.726;9.006;2022-09-09T06:40:52;15.90;99.90
9466;DHT22;4771;48.726;9.006;2022-09-09T06:43:20;16.00;99.90
9466;DHT22;4771;48.726;9.006;2022-09-09T06:45:55;16.00;99.90
9466;DHT22;4771;48.726;9.006;2022-09-09T06:48:22;16.10;99.90
9466;DHT22;4771;48.726;9.006;2022-09-09T06:50:51;16.20;99.90
9466;DHT22;4771;48.726;9.006;2022-09-09T06:53:26;16.20;99.90
9466;DHT22;4771;48.726;9.006;2022-09-09T06:55:53;16.20;99.90
9466;DHT22;4771;48.726;9.006;2022-09-09T06:58:20;16.40;99.90
9466;DHT22;4771;48.726;9.006;2022-09-09T07:00:47;16.50;99.90
9466;DHT22;4771;48.726;9.006;2022-09-09T07:03:16;16.50;99.90
9466;DHT22;4771;48.726;9.006;2022-09-09T07:05:43;16.50;99.90
9466;DHT22;4771;48.726;9.006;2022-09-09T07:08:11;16.60;99.90
9466;DHT22;4771;48.726;9.006;2022-09-09T07:10:38;16.60;99.90
9466;DHT22;4771;48.726;9.006;2022-09-09T07:13:04;16.70;99.90
9466;DHT22;4771;48.726;9.006;2022-09-09T07:15:33;16.80;99.90
9466;DHT22;4771;48.726;9.006;2022-09-09T07:18:01;17.00;99.90
9466;DHT22;4771;48.726;9.006;2022-09-09T07:20:29;17.10;99.90
9466;DHT22;4771;48.726;9.006;2022-09-09T07:22:56;17.30;99.90
9466;DHT22;4771;48.726;9.006;2022-09-09T07:25:24;17.60;99.90
9466;DHT22;4771;48.726;9.006;2022-09-09T07:27:52;17.80;99.90
9466;DHT22;4771;48.726;9.006;2022-09-09T07:30:19;18.00;99.90
9466;DHT22;4771;48.726;9.006;2022-09-09T07:32:45;18.20;99.90
9466;DHT22;4771;48.726;9.006;2022-09-09T07:35:13;18.20;99.90
9466;DHT22;4771;48.726;9.006;2022-09-09T07:37:41;18.30;99.90
9466;DHT22;4771;48.726;9.006;2022-09-09T07:40:08;18.10;99.90
9466;DHT22;4771;48.726;9.006;2022-09-09T07:42:35;18.20;99.90
9466;DHT22;4771;48.726;9.006;2022-09-09T07:45:03;18.10;99.90
9466;DHT22;4771;48.726;9.006;2022-09-09T07:47:31;18.20;99.90
9466;DHT22;4771;48.726;9.006;2022-09-09T07:49:58;18.30;99.90
9466;DHT22;4771;48.726;9.006;2022-09-09T07:52:25;18.40;99.90
9466;DHT22;4771;48.726;9.006;2022-09-09T07:54:54;18.60;99.90
9466;DHT22;4771;48.726;9.006;2022-09-09T07:57:21;18.60;99.90
9466;DHT22;4771;48.726;9.006;2022-09-09T07:59:48;18.80;99.90
9466;DHT22;4771;48.726;9.006;2022-09-09T08:02:19;18.80;99.90
9466;DHT22;4771;48.726;9.006;2022-09-09T08:04:45;18.80;99.90
9466;DHT22;4771;48.726;9.006;2022-09-09T08:07:12;18.80;99.90
9466;DHT22;4771;48.726;9.006;2022-09-09T08:09:39;18.60;99.90
9466;DHT22;4771;48.726;9.006;2022-09-09T08:12:08;18.60;99.90
9466;DHT22;4771;48.726;9.006;2022-09-09T08:14:35;18.70;99.90
9466;DHT22;4771;48.726;9.006;2022-09-09T08:17:02;18.80;99.90
9466;DHT22;4771;48.726;9.006;2022-09-09T08:19:29;18.90;99.90
9466;DHT22;4771;48.726;9.006;2022-09-09T08:21:56;19.00;99.90
9466;DHT22;4771;48.726;9.006;2022-09-09T08:24:23;19.10;99.90
9466;DHT22;4771;48.726;9.006;2022-09-09T08:26:50;19.20;99.90
9466;DHT22;4771;48.726;9.006;2022-09-09T08:29:18;19.20;99.90
9466;DHT22;4771;48.726;9.006;2022-09-09T08:31:47;19.10;99.90
9466;DHT22;4771;48.726;9.006;2022-09-09T08:34:14;19.00;99.90
9466;DHT22;4771;48.726;9.006;2022-09-09T08:36:44;18.90;99.90
9466;DHT22;4771;48.726;9.006;2022-09-09T08:39:14;18.90;99.90
9466;DHT22;4771;48.726;9.006;2022-09-09T08:45:02;19.30;99.90
9466;DHT22;4771;48.726;9.006;2022-09-09T08:47:42;19.80;99.90
9466;DHT22;4771;48.726;9.006;2022-09-09T08:50:18;20.00;99.90
9466;DHT22;4771;48.726;9.006;2022-09-09T08:52:54;20.10;99.90
9466;DHT22;4771;48.726;9.006;2022-09-09T08:55:27;20.00;99.90
9466;DHT22;4771;48.726;9.006;2022-09-09T08:57:57;20.00;99.90
9466;DHT22;4771;48.726;9.006;2022-09-09T09:00:35;19.90;99.90
9466;DHT22;4771;48.726;9.006;2022-09-09T09:03:13;19.80;99.90
9466;DHT22;4771;48.726;9.006;2022-09-09T09:05:47;19.50;99.90
9466;DHT22;4771;48.726;9.006;2022-09-09T09:08:25;19.20;99.90
9466;DHT22;4771;48.726;9.006;2022-09-09T09:10:56;18.90;99.90
9466;DHT22;4771;48.726;9.006;2022-09-09T09:13:30;18.50;99.90
9466;DHT22;4771;48.726;9.006;2022-09-09T09:16:13;18.30;99.90
9466;DHT22;4771;48.726;9.006;2022-09-09T09:18:41;18.00;99.90
9466;DHT22;4771;48.726;9.006;2022-09-09T09:21:12;17.80;99.90
9466;DHT22;4771;48.726;9.006;2022-09-09T09:23:45;17.70;99.90
9466;DHT22;4771;48.726;9.006;2022-09-09T09:26:14;17.70;99.90
9466;DHT22;4771;48.726;9.006;2022-09-09T09:28:41;17.90;99.90
9466;DHT22;4771;48.726;9.006;2022-09-09T09:31:11;18.20;99.90
9466;DHT22;4771;48.726;9.006;2022-09-09T09:33:46;18.50;99.90
9466;DHT22;4771;48.726;9.006;2022-09-09T09:36:14;18.80;99.90
9466;DHT22;4771;48.726;9.006;2022-09-09T09:38:52;19.10;99.90
9466;DHT22;4771;48.726;9.006;2022-09-09T09:41:30;19.40;99.90
9466;DHT22;4771;48.726;9.006;2022-09-09T09:43:58;19.60;99.90
9466;DHT22;4771;48.726;9.006;2022-09-09T09:46:27;19.90;99.90
9466;DHT22;4771;48.726;9.006;2022-09-09T09:48:59;20.10;99.90
9466;DHT22;4771;48.726;9.006;2022-09-09T09:51:26;20.30;99.90
9466;DHT22;4771;48.726;9.006;2022-09-09T09:53:54;20.60;99.90
9466;DHT22;4771;48.726;9.006;2022-09-09T09:56:31;20.70;99.90
9466;DHT22;4771;48.726;9.006;2022-09-09T09:58:58;21.00;99.90
9466;DHT22;4771;48.726;9.006;2022-09-09T10:01:28;21.30;99.90
9466;DHT22;4771;48.726;9.006;2022-09-09T10:03:58;21.40;99.90
9466;DHT22;4771;48.726;9.006;2022-09-09T10:06:30;21.70;99.90
9466;DHT22;4771;48.726;9.006;2022-09-09T10:08:59;22.00;99.90
9466;DHT22;4771;48.726;9.006;2022-09-09T10:11:35;22.10;99.90
9466;DHT22;4771;48.726;9.006;2022-09-09T10:14:10;22.00;99.90
9466;DHT22;4771;48.726;9.006;2022-09-09T10:16:53;22.00;99.90
9466;DHT22;4771;48.726;9.006;2022-09-09T10:19:29;22.10;99.90
9466;DHT22;4771;48.726;9.006;2022-09-09T10:22:04;22.30;99.90
9466;DHT22;4771;48.726;9.006;2022-09-09T10:27:43;22.50;99.90
9466;DHT22;4771;48.726;9.006;2022-09-09T10:30:17;22.80;99.90
9466;DHT22;4771;48.726;9.006;2022-09-09T10:32:48;23.10;99.90
9466;DHT22;4771;48.726;9.006;2022-09-09T10:35:27;23.00;97.10
9466;DHT22;4771;48.726;9.006;2022-09-09T10:38:10;23.20;95.00
9466;DHT22;4771;48.726;9.006;2022-09-09T10:40:59;23.50;93.40
9466;DHT22;4771;48.726;9.006;2022-09-09T10:43:55;24.00;90.20
9466;DHT22;4771;48.726;9.006;2022-09-09T10:46:31;24.20;86.80
9466;DHT22;4771;48.726;9.006;2022-09-09T10:49:13;24.60;82.30
9466;DHT22;4771;48.726;9.006;2022-09-09T10:51:48;24.60;79.60
9466;DHT22;4771;48.726;9.006;2022-09-09T10:54:32;24.60;76.70
9466;DHT22;4771;48.726;9.006;2022-09-09T10:57:07;24.40;78.70
9466;DHT22;4771;48.726;9.006;2022-09-09T10:59:38;24.10;73.00
9466;DHT22;4771;48.726;9.006;2022-09-09T11:02:15;23.60;76.50
9466;DHT22;4771;48.726;9.006;2022-09-09T11:04:51;23.20;76.70
9466;DHT22;4771;48.726;9.006;2022-09-09T11:07:26;22.40;78.70
9466;DHT22;4771;48.726;9.006;2022-09-09T11:09:59;22.10;81.50
9466;DHT22;4771;48.726;9.006;2022-09-09T11:12:29;21.20;79.80
9466;DHT22;4771;48.726;9.006;2022-09-09T11:15:01;20.60;83.80
9466;DHT22;4771;48.726;9.006;2022-09-09T11:17:39;20.30;87.90
9466;DHT22;4771;48.726;9.006;2022-09-09T11:20:13;19.90;90.30
9466;DHT22;4771;48.726;9.006;2022-09-09T11:22:46;19.50;93.30
9466;DHT22;4771;48.726;9.006;2022-09-09T11:25:17;19.30;99.90
9466;DHT22;4771;48.726;9.006;2022-09-09T11:28:02;19.00;99.90
9466;DHT22;4771;48.726;9.006;2022-09-09T11:30:42;18.70;99.90
9466;DHT22;4771;48.726;9.006;2022-09-09T11:33:31;18.40;99.90
9466;DHT22;4771;48.726;9.006;2022-09-09T11:39:15;17.90;99.90
9466;DHT22;4771;48.726;9.006;2022-09-09T11:41:45;17.90;99.90
9466;DHT22;4771;48.726;9.006;2022-09-09T11:44:17;18.10;99.90
9466;DHT22;4771;48.726;9.006;2022-09-09T11:46:48;18.30;99.90
9466;DHT22;4771;48.726;9.006;2022-09-09T11:49:27;18.50;99.90
9466;DHT22;4771;48.726;9.006;2022-09-09T11:51:56;18.50;99.90
9466;DHT22;4771;48.726;9.006;2022-09-09T11:54:29;18.50;99.90
9466;DHT22;4771;48.726;9.006;2022-09-09T11:56:57;18.80;99.90
9466;DHT22;4771;48.726;9.006;2022-09-09T11:59:25;19.10;99.90
9466;DHT22;4771;48.726;9.006;2022-09-09T12:01:55;19.40;99.90
9466;DHT22;4771;48.726;9.006;2022-09-09T12:04:34;19.80;99.90
9466;DHT22;4771;48.726;9.006;2022-09-09T12:07:23;20.10;99.90
9466;DHT22;4771;48.726;9.006;2022-09-09T12:09:56;20.30;99.90
9466;DHT22;4771;48.726;9.006;2022-09-09T12:12:28;20.50;99.90
9466;DHT22;4771;48.726;9.006;2022-09-09T12:14:57;21.30;99.90
9466;DHT22;4771;48.726;9.006;2022-09-09T12:17:26;22.00;99.90
9466;DHT22;4771;48.726;9.006;2022-09-09T12:20:06;23.10;99.30
9466;DHT22;4771;48.726;9.006;2022-09-09T12:22:52;23.40;93.10
9466;DHT22;4771;48.726;9.006;2022-09-09T12:25:29;23.90;92.70
9466;DHT22;4771;48.726;9.006;2022-09-09T12:28:04;23.20;90.30
9466;DHT22;4771;48.726;9.006;2022-09-09T12:30:37;22.90;92.30
9466;DHT22;4771;48.726;9.006;2022-09-09T12:33:11;22.60;90.70
9466;DHT22;4771;48.726;9.006;2022-09-09T12:35:41;22.20;91.70
9466;DHT22;4771;48.726;9.006;2022-09-09T12:38:13;21.90;94.20
9466;DHT22;4771;48.726;9.006;2022-09-09T12:40:42;21.80;93.60
9466;DHT22;4771;48.726;9.006;2022-09-09T12:43:20;22.60;94.70
9466;DHT22;4771;48.726;9.006;2022-09-09T12:45:48;23.60;90.20
9466;DHT22;4771;48.726;9.006;2022-09-09T12:48:30;24.20;86.70
9466;DHT22;4771;48.726;9.006;2022-09-09T12:50:58;24.70;81.10
9466;DHT22;4771;48.726;9.006;2022-09-09T12:53:30;25.00;80.00
9466;DHT22;4771;48.726;9.006;2022-09-09T12:55:59;24.60;78.40
9466;DHT22;4771;48.726;9.006;2022-09-09T12:58:28;23.90;78.40
9466;DHT22;4771;48.726;9.006;2022-09-09T13:00:59;23.70;84.00
9466;DHT22;4771;48.726;9.006;2022-09-09T13:03:27;24.50;80.40
9466;DHT22;4771;48.726;9.006;2022-09-09T13:05:58;25.20;75.80
9466;DHT22;4771;48.726;9.006;2022-09-09T13:08:27;24.90;74.10
9466;DHT22;4771;48.726;9.006;2022-09-09T13:10:57;24.70;72.50
9466;DHT22;4771;48.726;9.006;2022-09-09T13:13:27;24.80;75.20
9466;DHT22;4771;48.726;9.006;2022-09-09T13:15:58;24.90;73.20
9466;DHT22;4771;48.726;9.006;2022-09-09T13:18:27;24.80;70.40
9466;DHT22;4771;48.726;9.006;2022-09-09T13:20:55;24.20;65.70
9466;DHT22;4771;48.726;9.006;2022-09-09T13:23:27;23.90;67.80
9466;DHT22;4771;48.726;9.006;2022-09-09T13:25:56;23.50;64.70
9466;DHT22;4771;48.726;9.006;2022-09-09T13:28:25;23.10;69.00
9466;DHT22;4771;48.726;9.006;2022-09-09T13:30:57;22.90;65.90
9466;DHT22;4771;48.726;9.006;2022-09-09T13:33:33;22.60;65.50
9466;DHT22;4771;48.726;9.006;2022-09-09T13:36:04;22.40;66.80
9466;DHT22;4771;48.726;9.006;2022-09-09T13:38:36;22.30;68.70
9466;DHT22;4771;48.726;9.006;2022-09-09T13:41:05;22.20;67.10
9466;DHT22;4771;48.726;9.006;2022-09-09T13:43:37;22.10;69.90
9466;DHT22;4771;48.726;9.006;2022-09-09T13:46:21;22.10;66.60
9466;DHT22;4771;48.726;9.006;2022-09-09T13:48:54;22.00;66.60
9466;DHT22;4771;48.726;9.006;2022-09-09T13:51:33;22.10;68.50
9466;DHT22;4771;48.726;9.006;2022-09-09T13:54:04;22.40;69.60
9466;DHT22;4771;48.726;9.006;2022-09-09T13:56:32;22.70;67.30
9466;DHT22;4771;48.726;9.006;2022-09-09T13:58:59;23.10;64.40
9466;DHT22;4771;48.726;9.006;2022-09-09T14:01:26;24.20;63.90
9466;DHT22;4771;48.726;9.006;2022-09-09T14:03:53;25.90;59.70
9466;DHT22;4771;48.726;9.006;2022-09-09T14:06:21;27.40;52.50
9466;DHT22;4771;48.726;9.006;2022-09-09T14:08:50;28.90;46.60
9466;DHT22;4771;48.726;9.006;2022-09-09T14:11:18;30.40;41.10
9466;DHT22;4771;48.726;9.006;2022-09-09T14:13:47;31.30;37.50
9466;DHT22;4771;48.726;9.006;2022-09-09T14:16:15;30.50;35.60
9466;DHT22;4771;48.726;9.006;2022-09-09T14:18:43;29.20;35.30
9466;DHT22;4771;48.726;9.006;2022-09-09T14:21:11;27.70;36.80
9466;DHT22;4771;48.726;9.006;2022-09-09T14:23:38;27.30;37.80
9466;DHT22;4771;48.726;9.006;2022-09-09T14:26:06;26.70;40.00
9466;DHT22;4771;48.726;9.006;2022-09-09T14:28:35;26.50;40.90
9466;DHT22;4771;48.726;9.006;2022-09-09T14:31:03;26.10;40.80
9466;DHT22;4771;48.726;9.006;2022-09-09T14:33:31;25.10;40.70
9466;DHT22;4771;48.726;9.006;2022-09-09T14:35:59;24.20;42.30
9466;DHT22;4771;48.726;9.006;2022-09-09T14:38:29;23.70;44.20
9466;DHT22;4771;48.726;9.006;2022-09-09T14:40:56;23.50;45.70
9466;DHT22;4771;48.726;9.006;2022-09-09T14:43:24;23.20;45.50
9466;DHT22;4771;48.726;9.006;2022-09-09T14:45:53;23.00;46.30
9466;DHT22;4771;48.726;9.006;2022-09-09T14:48:20;22.70;47.20
9466;DHT22;4771;48.726;9.006;2022-09-09T14:50:47;22.60;47.70
9466;DHT22;4771;48.726;9.006;2022-09-09T14:53:16;22.50;48.80
9466;DHT22;4771;48.726;9.006;2022-09-09T14:55:43;22.60;49.80
9466;DHT22;4771;48.726;9.006;2022-09-09T14:58:12;22.60;50.60
9466;DHT22;4771;48.726;9.006;2022-09-09T15:00:39;22.50;49.40
9466;DHT22;4771;48.726;9.006;2022-09-09T15:03:08;22.40;49.20
9466;DHT22;4771;48.726;9.006;2022-09-09T15:05:36;22.10;49.30
9466;DHT22;4771;48.726;9.006;2022-09-09T15:08:03;21.90;51.30
9466;DHT22;4771;48.726;9.006;2022-09-09T15:10:30;21.70;51.50
9466;DHT22;4771;48.726;9.006;2022-09-09T15:12:58;21.60;53.70
9466;DHT22;4771;48.726;9.006;2022-09-09T15:15:25;21.30;52.90
9466;DHT22;4771;48.726;9.006;2022-09-09T15:17:53;21.20;54.40
9466;DHT22;4771;48.726;9.006;2022-09-09T15:20:22;21.40;56.10
9466;DHT22;4771;48.726;9.006;2022-09-09T15:22:49;21.60;57.50
9466;DHT22;4771;48.726;9.006;2022-09-09T15:25:18;21.70;56.10
9466;DHT22;4771;48.726;9.006;2022-09-09T15:27:45;21.90;54.00
9466;DHT22;4771;48.726;9.006;2022-09-09T15:30:12;22.00;54.90
9466;DHT22;4771;48.726;9.006;2022-09-09T15:32:39;22.10;54.80
9466;DHT22;4771;48.726;9.006;2022-09-09T15:35:07;22.00;55.50
9466;DHT22;4771;48.726;9.006;2022-09-09T15:37:35;21.70;56.90
9466;DHT22;4771;48.726;9.006;2022-09-09T15:40:02;21.60;58.20
9466;DHT22;4771;48.726;9.006;2022-09-09T15:42:30;21.20;59.00
9466;DHT22;4771;48.726;9.006;2022-09-09T15:44:57;21.20;59.10
9466;DHT22;4771;48.726;9.006;2022-09-09T15:47:24;21.10;59.40
9466;DHT22;4771;48.726;9.006;2022-09-09T15:49:51;21.00;61.60
9466;DHT22;4771;48.726;9.006;2022-09-09T15:52:18;20.90;59.70
9466;DHT22;4771;48.726;9.006;2022-09-09T15:54:46;20.80;59.70
9466;DHT22;4771;48.726;9.006;2022-09-09T15:57:13;20.70;58.80
9466;DHT22;4771;48.726;9.006;2022-09-09T15:59:40;20.70;61.50
9466;DHT22;4771;48.726;9.006;2022-09-09T16:02:10;20.60;61.30
9466;DHT22;4771;48.726;9.006;2022-09-09T16:04:37;20.40;59.00
9466;DHT22;4771;48.726;9.006;2022-09-09T16:07:06;20.40;62.70
9466;DHT22;4771;48.726;9.006;2022-09-09T16:09:33;20.30;62.50
9466;DHT22;4771;48.726;9.006;2022-09-09T16:12:03;20.20;61.90
9466;DHT22;4771;48.726;9.006;2022-09-09T16:14:33;20.10;64.90
9466;DHT22;4771;48.726;9.006;2022-09-09T16:17:01;19.90;64.80
9466;DHT22;4771;48.726;9.006;2022-09-09T16:19:28;19.80;67.20
9466;DHT22;4771;48.726;9.006;2022-09-09T16:21:55;19.70;67.20
9466;DHT22;4771;48.726;9.006;2022-09-09T16:24:22;19.60;69.40
9466;DHT22;4771;48.726;9.006;2022-09-09T16:26:51;19.60;74.00
9466;DHT22;4771;48.726;9.006;2022-09-09T16:29:22;19.40;79.00
9466;DHT22;4771;48.726;9.006;2022-09-09T16:31:50;19.20;85.20
9466;DHT22;4771;48.726;9.006;2022-09-09T16:34:17;19.10;90.00
9466;DHT22;4771;48.726;9.006;2022-09-09T16:36:45;19.10;91.70